Time;durP1;ratioP1;P1;durP2;ratioP2;P2;SDS_P1;SDS_P2;PMS_P1;PMS_P2;Temp;Humidity;BMP_temperature;BMP_pressure;BME280_temperature;BME280_humidity;BME280_pressure;Samples;Min_cycle;Max_cycle;Signal;HPM_P1;HPM_P2
2022/03/05 00:02:23;;;;;;;19.6;12.6;;;;;;;-1.34;64.46973;937.4433;;;;
2022/03/05 00:04:43;;;;;;;18.3;11.7;;;;;;;-1.36;64.7666;937.4966;;;;
2022/03/05 00:07:16;;;;;;;18.7;12;;;;;;;-1.35;64.8125;937.4669;;;;
2022/03/05 00:09:46;;;;;;;16.4;10.7;;;;;;;-1.42;65.125;937.5084;;;;
2022/03/05 00:12:13;;;;;;;15.5;10.6;;;;;;;-1.37;64.99902;937.5471;;;;
2022/03/05 00:14:45;;;;;;;14.7;11;;;;;;;-1.44;64.85449;937.5514;;;;
2022/03/05 00:17:34;;;;;;;21.6;12.5;;;;;;;-1.55;65.15918;937.5636;;;;
2022/03/05 00:20:25;;;;;;;18.8;12.8;;;;;;;-1.38;65.5957;937.573;;;;
2022/03/05 00:22:57;;;;;;;18.1;12.1;;;;;;;-1.53;65.82813;937.4791;;;;
2022/03/05 00:25:39;;;;;;;16.9;11.7;;;;;;;-1.61;66.18359;937.5441;;;;
2022/03/05 00:28:18;;;;;;;18.7;13.3;;;;;;;-1.44;66.36426;937.6155;;;;
2022/03/05 00:30:45;;;;;;;16.2;10.8;;;;;;;-1.66;65.70898;937.5851;;;;
2022/03/05 00:33:24;;;;;;;16.6;10.7;;;;;;;-1.67;65.44043;937.5422;;;;
2022/03/05 00:35:59;;;;;;;15.3;9.9;;;;;;;-1.76;65.53613;937.507;;;;
2022/03/05 00:38:33;;;;;;;13.1;9.4;;;;;;;-1.81;65.57324;937.6025;;;;
2022/03/05 00:41:19;;;;;;;14.4;9.7;;;;;;;-1.77;65.60156;937.5142;;;;
2022/03/05 00:43:45;;;;;;;15.7;10.4;;;;;;;-1.74;65.37402;937.6541;;;;
2022/03/05 00:46:18;;;;;;;17.2;11.6;;;;;;;-1.64;65.87793;937.5378;;;;
2022/03/05 00:48:49;;;;;;;14.4;11.1;;;;;;;-1.7;65.71289;937.6055;;;;
2022/03/05 00:51:17;;;;;;;16.9;11.7;;;;;;;-1.83;65.71484;937.6442;;;;
2022/03/05 00:53:46;;;;;;;15.3;10.8;;;;;;;-1.8;65.9541;937.6471;;;;
2022/03/05 00:56:11;;;;;;;15.4;10.4;;;;;;;-1.75;65.80566;937.663;;;;
2022/03/05 00:58:38;;;;;;;15;10.3;;;;;;;-1.86;66.33203;937.6014;;;;
2022/03/05 01:01:04;;;;;;;15.6;10.1;;;;;;;-1.9;66.20313;937.5895;;;;
2022/03/05 01:03:32;;;;;;;12.3;9;;;;;;;-1.95;66.14941;937.5588;;;;
2022/03/05 01:05:57;;;;;;;14.1;9.8;;;;;;;-2.03;66.69238;937.5882;;;;
2022/03/05 01:08:24;;;;;;;15.3;9.9;;;;;;;-2.04;66.9668;937.545;;;;
2022/03/05 01:10:49;;;;;;;12.7;9.4;;;;;;;-2.18;67.51074;937.5477;;;;
2022/03/05 01:13:14;;;;;;;12.7;9.3;;;;;;;-2.16;67.69238;937.5692;;;;
2022/03/05 01:15:46;;;;;;;14.7;9.9;;;;;;;-2.21;67.58398;937.4996;;;;
2022/03/05 01:18:13;;;;;;;12.4;9.1;;;;;;;-2.32;67.9541;937.4791;;;;
2022/03/05 01:20:38;;;;;;;13.6;9.4;;;;;;;-2.32;67.86523;937.4999;;;;
2022/03/05 01:23:03;;;;;;;13.5;9.1;;;;;;;-2.2;67.61719;937.4506;;;;
2022/03/05 01:25:29;;;;;;;14;9;;;;;;;-2.41;68.39355;937.4534;;;;
2022/03/05 01:27:56;;;;;;;13.6;9.6;;;;;;;-2.41;68.81445;937.4347;;;;
2022/03/05 01:30:22;;;;;;;14.9;9.4;;;;;;;-2.5;68.87695;937.4202;;;;
2022/03/05 01:32:51;;;;;;;15;9.8;;;;;;;-2.61;69.48926;937.3363;;;;
2022/03/05 01:35:15;;;;;;;14.1;9.1;;;;;;;-2.64;69.40723;937.2249;;;;
2022/03/05 01:37:45;;;;;;;14.6;9.6;;;;;;;-2.62;69.27734;937.2494;;;;
2022/03/05 01:40:15;;;;;;;13.8;9.5;;;;;;;-2.61;69.20215;937.1942;;;;
2022/03/05 01:42:40;;;;;;;14.3;9.2;;;;;;;-2.67;69.30273;937.1936;;;;
2022/03/05 01:45:10;;;;;;;13.8;9.6;;;;;;;-2.72;69.32715;937.2078;;;;
2022/03/05 01:47:37;;;;;;;13.6;9.7;;;;;;;-2.77;69.81738;937.1364;;;;
2022/03/05 01:50:02;;;;;;;15.6;9.8;;;;;;;-2.71;69.70508;937.1838;;;;
2022/03/05 01:52:28;;;;;;;13.2;9.2;;;;;;;-2.74;70.17676;937.2777;;;;
2022/03/05 01:54:53;;;;;;;13.4;9.4;;;;;;;-2.64;69.96094;937.2592;;;;
2022/03/05 01:57:19;;;;;;;17;9.4;;;;;;;-2.6;69.69141;937.257;;;;
2022/03/05 01:59:44;;;;;;;14.8;9.5;;;;;;;-2.58;69.6709;937.1497;;;;
2022/03/05 02:02:14;;;;;;;12.7;9.2;;;;;;;-2.57;69.47461;937.2665;;;;
2022/03/05 02:04:39;;;;;;;13.3;9.2;;;;;;;-2.67;69.94629;937.3325;;;;
2022/03/05 02:07:06;;;;;;;15.9;9.5;;;;;;;-2.56;69.56445;937.231;;;;
2022/03/05 02:09:31;;;;;;;12.8;9.3;;;;;;;-2.5;69.30762;937.2719;;;;
2022/03/05 02:11:58;;;;;;;14.4;9.8;;;;;;;-2.58;69.17383;937.2311;;;;
2022/03/05 02:14:23;;;;;;;13.8;9.2;;;;;;;-2.59;69.19434;937.1526;;;;
2022/03/05 02:16:57;;;;;;;14.2;9.5;;;;;;;-2.46;68.73926;937.2004;;;;
2022/03/05 02:19:28;;;;;;;12.8;9.3;;;;;;;-2.5;68.82031;937.236;;;;
2022/03/05 02:21:53;;;;;;;14.6;9.7;;;;;;;-2.68;69.6875;937.2896;;;;
2022/03/05 02:24:31;;;;;;;17.4;10.4;;;;;;;-2.9;70.33691;937.1856;;;;
2022/03/05 02:26:47;;;;;;;13;8.6;;;;;;;-2.81;70.07617;937.2453;;;;
2022/03/05 02:29:15;;;;;;;14.3;9.8;;;;;;;-2.82;69.97656;937.27;;;;
2022/03/05 02:31:41;;;;;;;13;9.1;;;;;;;-2.73;69.48047;937.3135;;;;
2022/03/05 02:34:08;;;;;;;12.8;9.1;;;;;;;-2.68;69.3125;937.2619;;;;
2022/03/05 02:36:32;;;;;;;14.6;9.3;;;;;;;-2.71;69.21777;937.2514;;;;
2022/03/05 02:39:00;;;;;;;13.5;9;;;;;;;-2.72;68.9082;937.2836;;;;
2022/03/05 02:41:25;;;;;;;13.7;8.7;;;;;;;-2.74;69.125;937.2775;;;;
2022/03/05 02:43:50;;;;;;;13.4;8.7;;;;;;;-2.98;69.90332;937.2598;;;;
2022/03/05 02:46:15;;;;;;;14.4;8.9;;;;;;;-3.11;70.67969;937.2017;;;;
2022/03/05 02:48:41;;;;;;;13.3;9.1;;;;;;;-3.04;70.61328;937.1837;;;;
2022/03/05 02:51:09;;;;;;;13.4;9;;;;;;;-2.93;70.06738;937.2269;;;;
2022/03/05 02:54:13;;;;;;;12.8;9;;;;;;;-2.92;70.125;937.2439;;;;
2022/03/05 02:56:41;;;;;;;12.3;8.4;;;;;;;-3;69.83496;937.2683;;;;
2022/03/05 02:59:06;;;;;;;13.8;8.8;;;;;;;-2.92;69.8584;937.1906;;;;
2022/03/05 03:01:33;;;;;;;13.3;8.7;;;;;;;-3.07;69.76758;937.1803;;;;
2022/03/05 03:07:22;;;;;;;13.1;8.9;;;;;;;-2.97;69.80664;937.3304;;;;
2022/03/05 03:09:47;;;;;;;12.5;8.8;;;;;;;-3.16;70.44824;937.3734;;;;
2022/03/05 03:12:12;;;;;;;13.6;8.9;;;;;;;-3.2;70.71875;937.4197;;;;
2022/03/05 03:14:39;;;;;;;14;8.9;;;;;;;-3.19;70.64258;937.3789;;;;
2022/03/05 03:17:04;;;;;;;12.6;8.7;;;;;;;-3.23;70.49219;937.3365;;;;
2022/03/05 03:19:34;;;;;;;14.1;9.2;;;;;;;-3.36;71.2998;937.3111;;;;
2022/03/05 03:21:59;;;;;;;14;9.4;;;;;;;-3.5;72.26953;937.3506;;;;
2022/03/05 03:24:25;;;;;;;14.2;9.5;;;;;;;-3.44;72.12598;937.3785;;;;
2022/03/05 03:27:57;;;;;;;15.5;10;;;;;;;-3.44;72.45703;937.2549;;;;
2022/03/05 03:30:10;;;;;;;13.1;8.7;;;;;;;-3.46;72.1543;937.1927;;;;
2022/03/05 03:32:36;;;;;;;22.4;9.9;;;;;;;-3.42;71.99609;937.1845;;;;
2022/03/05 03:35:02;;;;;;;13.8;8.8;;;;;;;-3.5;72.07129;937.0941;;;;
2022/03/05 03:37:31;;;;;;;14.5;9.4;;;;;;;-3.58;72.13379;937.1983;;;;
2022/03/05 03:39:55;;;;;;;14.6;10.6;;;;;;;-3.57;72.14648;937.1481;;;;
2022/03/05 03:42:23;;;;;;;15.4;10;;;;;;;-3.66;72.28711;937.1728;;;;
2022/03/05 03:44:48;;;;;;;13;9.1;;;;;;;-3.73;72.51758;937.1425;;;;
2022/03/05 03:47:14;;;;;;;13.2;9.2;;;;;;;-3.74;72.52734;937.2;;;;
2022/03/05 03:49:41;;;;;;;15;9.6;;;;;;;-3.78;72.85059;937.1323;;;;
2022/03/05 03:52:06;;;;;;;14.7;9.3;;;;;;;-3.86;73.34473;937.1336;;;;
2022/03/05 03:54:31;;;;;;;14.6;9.9;;;;;;;-3.84;73.36914;937.0916;;;;
2022/03/05 03:56:58;;;;;;;14.2;9.5;;;;;;;-3.85;73.26855;937.1407;;;;
2022/03/05 03:59:23;;;;;;;15.4;9.4;;;;;;;-4.01;73.77148;937.0566;;;;
2022/03/05 04:09:03;;;;;;;15.4;9.6;;;;;;;-4.19;74.62012;937.0982;;;;
2022/03/05 04:11:28;;;;;;;12.9;9;;;;;;;-4.17;74.4375;937.0239;;;;
2022/03/05 04:13:57;;;;;;;14.8;9.8;;;;;;;-4.17;74.36035;937.0426;;;;
2022/03/05 04:16:31;;;;;;;13.3;7.2;;;;;;;-4.15;74.16504;936.98;;;;
2022/03/05 04:18:59;;;;;;;12.8;7.5;;;;;;;-4.05;73.73047;936.9434;;;;
2022/03/05 04:21:28;;;;;;;12.5;7.9;;;;;;;-3.98;73.0791;937.0139;;;;
2022/03/05 04:23:56;;;;;;;10.8;6.9;;;;;;;-4.05;73.45605;936.9997;;;;
2022/03/05 04:26:21;;;;;;;16.5;7.9;;;;;;;-4.01;73.47168;936.9847;;;;
2022/03/05 04:28:49;;;;;;;12;7.8;;;;;;;-3.92;73.13574;936.9402;;;;
2022/03/05 04:31:16;;;;;;;13;7.4;;;;;;;-3.89;72.93164;936.976;;;;
2022/03/05 04:33:44;;;;;;;13;7.5;;;;;;;-3.93;72.95605;936.9299;;;;
2022/03/05 04:36:10;;;;;;;12.1;7.4;;;;;;;-3.96;73.05078;936.9405;;;;
2022/03/05 04:38:38;;;;;;;15;7.5;;;;;;;-3.97;73.00391;936.9825;;;;
2022/03/05 04:41:07;;;;;;;11.9;7.5;;;;;;;-4;72.96582;937.0214;;;;
2022/03/05 04:43:33;;;;;;;15.2;8.5;;;;;;;-4.06;73.36426;936.9241;;;;
2022/03/05 04:45:59;;;;;;;16.5;7;;;;;;;-4.12;73.91797;936.9508;;;;
2022/03/05 04:48:25;;;;;;;14.7;7.9;;;;;;;-4.16;74.42676;936.9702;;;;
2022/03/05 04:50:52;;;;;;;15.3;7.9;;;;;;;-4.11;74.34766;936.8936;;;;
2022/03/05 04:53:19;;;;;;;13.3;7.8;;;;;;;-4.09;74.28613;937.0366;;;;
2022/03/05 04:55:41;;;;;;;14.1;7.6;;;;;;;-4.09;74.29785;937.0848;;;;
2022/03/05 04:58:07;;;;;;;13.4;8.3;;;;;;;-4.19;74.88672;937.0883;;;;
2022/03/05 05:00:32;;;;;;;15.9;8.2;;;;;;;-4.12;74.71191;937.0358;;;;
2022/03/05 05:02:59;;;;;;;15.5;8.7;;;;;;;-4;74.13574;937.1417;;;;
2022/03/05 05:05:24;;;;;;;15.8;8.9;;;;;;;-3.96;73.69141;937.1473;;;;
2022/03/05 05:07:50;;;;;;;13.6;8.1;;;;;;;-3.9;72.68652;937.1404;;;;
2022/03/05 05:10:18;;;;;;;12.3;8;;;;;;;-3.92;72.68359;937.0926;;;;
2022/03/05 05:12:44;;;;;;;12.6;8;;;;;;;-3.84;72.14551;937.1052;;;;
2022/03/05 05:15:20;;;;;;;13.7;7.7;;;;;;;-3.89;72.34473;937.0947;;;;
2022/03/05 05:17:47;;;;;;;14.3;8.2;;;;;;;-4.04;72.23145;936.9869;;;;
2022/03/05 05:20:21;;;;;;;12.4;7.5;;;;;;;-4.2;73.16309;937.1293;;;;
2022/03/05 05:22:49;;;;;;;15;8.7;;;;;;;-4.18;73.05762;937.0049;;;;
2022/03/05 05:25:19;;;;;;;14;8.1;;;;;;;-4;72.75781;937.0892;;;;
2022/03/05 05:27:48;;;;;;;18.5;9.6;;;;;;;-4;72.50391;937.1306;;;;
2022/03/05 05:30:22;;;;;;;15.5;8.3;;;;;;;-4.06;73.23242;937.2104;;;;
2022/03/05 05:32:51;;;;;;;12.9;7.6;;;;;;;-4.23;73.5752;937.2863;;;;
2022/03/05 05:35:17;;;;;;;16.4;8.2;;;;;;;-4.29;74.15039;937.29;;;;
2022/03/05 05:37:44;;;;;;;14.5;8.5;;;;;;;-4.22;74.09668;937.2947;;;;
2022/03/05 05:40:09;;;;;;;15.2;8.7;;;;;;;-4.12;73.5957;937.1309;;;;
2022/03/05 05:42:36;;;;;;;13.7;8.1;;;;;;;-4.2;73.79102;937.245;;;;
2022/03/05 05:45:01;;;;;;;17.3;8.3;;;;;;;-4.21;73.79102;937.3044;;;;
2022/03/05 05:47:27;;;;;;;14.4;8;;;;;;;-4.24;73.75195;937.313;;;;
2022/03/05 05:49:52;;;;;;;13.6;8;;;;;;;-4.19;73.31836;937.2543;;;;
2022/03/05 05:52:18;;;;;;;15.2;8.5;;;;;;;-3.97;72.33203;937.2369;;;;
2022/03/05 05:54:43;;;;;;;14.3;7.9;;;;;;;-3.87;71.6543;937.1492;;;;
2022/03/05 05:57:10;;;;;;;16.4;8;;;;;;;-3.86;71.21387;937.2527;;;;
2022/03/05 05:59:35;;;;;;;15.1;7.8;;;;;;;-4.04;72.08789;937.2544;;;;
2022/03/05 06:02:03;;;;;;;14.1;7.5;;;;;;;-4.14;72.93164;937.3094;;;;
2022/03/05 06:04:28;;;;;;;17.4;8.1;;;;;;;-4.08;73.31543;937.3847;;;;
2022/03/05 06:07:28;;;;;;;14.9;8;;;;;;;-3.92;72.70605;937.3445;;;;
2022/03/05 06:09:48;;;;;;;13.9;8.2;;;;;;;-3.9;72.50977;937.3992;;;;
2022/03/05 06:12:13;;;;;;;16;8.7;;;;;;;-3.79;71.84473;937.4608;;;;
2022/03/05 06:14:40;;;;;;;16.6;8.8;;;;;;;-3.82;71.9502;937.4611;;;;
2022/03/05 06:17:12;;;;;;;16.6;8.5;;;;;;;-3.91;72.06543;937.4039;;;;
2022/03/05 06:19:44;;;;;;;14.5;8.5;;;;;;;-4.04;72.58398;937.4891;;;;
2022/03/05 06:22:27;;;;;;;14;8.4;;;;;;;-3.95;72.72168;937.5072;;;;
2022/03/05 06:24:56;;;;;;;16.2;8.7;;;;;;;-3.31;73.42871;937.5037;;;;
2022/03/05 06:27:22;;;;;;;14;7.2;;;;;;;-2.26;69.23828;937.4955;;;;
2022/03/05 06:29:46;;;;;;;14.3;7.7;;;;;;;-1.27;64.95703;937.4864;;;;
2022/03/05 06:32:12;;;;;;;15.4;7.7;;;;;;;-0.47;62.21094;937.5342;;;;
2022/03/05 06:34:38;;;;;;;12.4;7.2;;;;;;;0;59.98633;937.5115;;;;
2022/03/05 06:37:03;;;;;;;10.1;6.6;;;;;;;1.01;56.33203;937.5259;;;;
2022/03/05 06:39:28;;;;;;;12.3;7.2;;;;;;;1.59;53.40234;937.5455;;;;
2022/03/05 06:41:57;;;;;;;11.6;7.2;;;;;;;1.35;53.99902;937.5338;;;;
2022/03/05 06:44:22;;;;;;;11.6;6.9;;;;;;;0.65;54.32031;937.564;;;;
2022/03/05 06:46:48;;;;;;;13.2;7.3;;;;;;;0.53;57.57227;937.5842;;;;
2022/03/05 06:49:14;;;;;;;12.7;7.5;;;;;;;1.34;54.52148;937.5934;;;;
2022/03/05 06:51:43;;;;;;;14.4;7.9;;;;;;;1.89;52.85742;937.5809;;;;
2022/03/05 06:54:12;;;;;;;19.3;8;;;;;;;2.06;51.76074;937.6298;;;;
2022/03/05 06:56:37;;;;;;;12.6;7.7;;;;;;;2.02;51.52148;937.582;;;;
2022/03/05 06:59:03;;;;;;;13.7;8.1;;;;;;;2.16;50.48535;937.6895;;;;
2022/03/05 07:01:28;;;;;;;15.6;8.1;;;;;;;1.89;50.90039;937.779;;;;
2022/03/05 07:03:55;;;;;;;15.6;8.8;;;;;;;2.93;49.71289;937.7272;;;;
2022/03/05 07:06:21;;;;;;;19.1;9.9;;;;;;;1.66;51.06348;937.8038;;;;
2022/03/05 07:08:47;;;;;;;15;9.5;;;;;;;0.62;54.19434;937.7312;;;;
2022/03/05 07:11:12;;;;;;;16.9;9.8;;;;;;;0.42;55.25098;937.8221;;;;
2022/03/05 07:13:43;;;;;;;12.1;8.3;;;;;;;0.2;54.11816;937.8267;;;;
2022/03/05 07:16:17;;;;;;;14.1;8.9;;;;;;;1.07;52.52148;937.7983;;;;
2022/03/05 07:18:43;;;;;;;14.7;9;;;;;;;2.03;51.25195;937.752;;;;
2022/03/05 07:21:12;;;;;;;14;7.9;;;;;;;3.17;48.92188;937.692;;;;
2022/03/05 07:23:37;;;;;;;15.6;8.7;;;;;;;3.85;46.9082;937.6505;;;;
2022/03/05 07:26:09;;;;;;;12.5;8;;;;;;;4.13;45.83789;937.6561;;;;
2022/03/05 07:28:40;;;;;;;14.1;8;;;;;;;4.92;45.05469;937.6768;;;;
2022/03/05 07:31:09;;;;;;;14;8.3;;;;;;;4.93;42.9707;937.6442;;;;
2022/03/05 07:33:34;;;;;;;16;8.5;;;;;;;5.82;41.54688;937.5644;;;;
2022/03/05 07:36:04;;;;;;;18.3;10.3;;;;;;;4.5;42.28516;937.5108;;;;
2022/03/05 07:38:28;;;;;;;18.9;11.4;;;;;;;3.68;44.92383;937.6085;;;;
2022/03/05 07:40:57;;;;;;;16.5;9.8;;;;;;;4.09;43.82031;937.577;;;;
2022/03/05 07:43:25;;;;;;;14.3;8.3;;;;;;;3.72;47.70313;937.4939;;;;
2022/03/05 07:45:51;;;;;;;33.6;14.8;;;;;;;2.66;47.76367;937.5833;;;;
2022/03/05 07:48:19;;;;;;;24.3;12.3;;;;;;;2.68;48.21484;937.5422;;;;
2022/03/05 07:50:42;;;;;;;16.4;8.8;;;;;;;2.51;48.43164;937.5302;;;;
2022/03/05 07:53:09;;;;;;;10.4;7.1;;;;;;;2.62;47.71484;937.5119;;;;
2022/03/05 07:55:34;;;;;;;11.3;7.4;;;;;;;2.56;48.05566;937.4975;;;;
2022/03/05 07:58:00;;;;;;;11.7;7;;;;;;;2.69;47.90137;937.5276;;;;
2022/03/05 08:00:25;;;;;;;12.5;8;;;;;;;3.63;46.47949;937.5437;;;;
2022/03/05 08:02:52;;;;;;;13.2;7;;;;;;;3.02;47.23242;937.6183;;;;
2022/03/05 08:05:17;;;;;;;12.1;7.4;;;;;;;5.6;42.21484;937.5605;;;;
2022/03/05 08:07:43;;;;;;;11.3;7.3;;;;;;;5.69;40.15723;937.5338;;;;
2022/03/05 08:10:09;;;;;;;11;7.1;;;;;;;6.7;40.22852;937.5032;;;;
2022/03/05 08:12:36;;;;;;;13.9;7.5;;;;;;;7.89;36.2334;937.3928;;;;
2022/03/05 08:15:02;;;;;;;12.6;7.1;;;;;;;8.22;35.60254;937.4998;;;;
2022/03/05 08:17:28;;;;;;;8.8;7;;;;;;;9.47;34.00879;937.4603;;;;
2022/03/05 08:19:56;;;;;;;10.4;7.7;;;;;;;11.78;30.51563;937.4042;;;;
2022/03/05 08:22:21;;;;;;;13.3;8.5;;;;;;;11.06;29.44727;937.3992;;;;
2022/03/05 08:24:49;;;;;;;10.5;7.3;;;;;;;9.59;30.91992;937.4132;;;;
2022/03/05 08:27:14;;;;;;;8.4;7.1;;;;;;;7.15;34.83398;937.3995;;;;
2022/03/05 08:29:42;;;;;;;11.7;7.7;;;;;;;8.81;32.89941;937.3173;;;;
2022/03/05 08:32:07;;;;;;;11.6;8.1;;;;;;;10.93;30.27344;937.3312;;;;
2022/03/05 08:34:35;;;;;;;11.1;8.1;;;;;;;12.91;27.67871;937.2742;;;;
2022/03/05 08:37:00;;;;;;;10.7;8;;;;;;;13.77;26.04199;937.2283;;;;
2022/03/05 08:39:29;;;;;;;11.8;7.5;;;;;;;14.73;23.9209;937.1502;;;;
2022/03/05 08:41:58;;;;;;;10.4;8;;;;;;;16.66;22.98438;937.0635;;;;
2022/03/05 08:44:23;;;;;;;9.9;7.7;;;;;;;16.18;23.73438;937.0762;;;;
2022/03/05 08:46:53;;;;;;;9.1;6.9;;;;;;;16.44;21.98926;937.0369;;;;
2022/03/05 08:49:18;;;;;;;10.7;7.2;;;;;;;17.69;20.98438;937.0359;;;;
2022/03/05 08:51:45;;;;;;;8.6;6.6;;;;;;;17.92;20.99512;936.9687;;;;
2022/03/05 08:54:10;;;;;;;10.2;7.3;;;;;;;13.06;24.93164;937.0808;;;;
2022/03/05 08:56:36;;;;;;;10;7.3;;;;;;;14.15;24.76465;937.0772;;;;
2022/03/05 08:59:01;;;;;;;11.5;7.4;;;;;;;16.38;22.72656;936.9699;;;;
2022/03/05 09:01:29;;;;;;;13;7.8;;;;;;;16.19;23.73438;936.9709;;;;
2022/03/05 09:03:54;;;;;;;10;6.9;;;;;;;16.66;23.65625;936.9407;;;;
2022/03/05 09:06:22;;;;;;;12.1;7.4;;;;;;;17.37;23.20703;936.9244;;;;
2022/03/05 09:08:47;;;;;;;11.9;7.7;;;;;;;18.23;21.9043;936.8812;;;;
2022/03/05 09:11:15;;;;;;;9;7.1;;;;;;;18.16;21.68066;936.8879;;;;
2022/03/05 09:13:40;;;;;;;10.5;7.4;;;;;;;17.71;21.36816;936.8019;;;;
2022/03/05 09:16:11;;;;;;;10.6;7.2;;;;;;;17.94;22.4834;936.7442;;;;
2022/03/05 09:18:43;;;;;;;8.9;6.8;;;;;;;18.94;20.57813;936.7484;;;;
2022/03/05 09:21:07;;;;;;;9.8;7.6;;;;;;;18.84;21.10938;936.6947;;;;
2022/03/05 09:23:37;;;;;;;9.8;7.1;;;;;;;17.29;21.71875;936.6852;;;;
2022/03/05 09:26:03;;;;;;;9.8;6.9;;;;;;;16.33;23.29102;936.6597;;;;
2022/03/05 09:28:28;;;;;;;11.3;7.5;;;;;;;17.32;22.16113;936.6903;;;;
2022/03/05 09:30:54;;;;;;;9.8;7;;;;;;;16.58;22.95703;936.6512;;;;
2022/03/05 09:33:24;;;;;;;9.9;7.5;;;;;;;16.86;22.49707;936.7158;;;;
2022/03/05 09:35:49;;;;;;;10.8;7.1;;;;;;;17.1;22.64844;936.6974;;;;
2022/03/05 09:38:20;;;;;;;8.8;6.7;;;;;;;16.28;23.43848;936.6694;;;;
2022/03/05 09:40:59;;;;;;;9.5;6.5;;;;;;;14.8;24.8125;936.7712;;;;
2022/03/05 09:43:25;;;;;;;9.3;7.1;;;;;;;14.86;25.19629;936.7606;;;;
2022/03/05 09:45:58;;;;;;;10.8;7.1;;;;;;;13.54;26.35059;936.7754;;;;
2022/03/05 09:48:24;;;;;;;10.4;7.2;;;;;;;13.26;26.3457;936.7899;;;;
2022/03/05 09:50:56;;;;;;;12.3;7.7;;;;;;;12.76;27.64551;936.7834;;;;
2022/03/05 09:53:23;;;;;;;9;7.2;;;;;;;12.54;27.24219;936.7673;;;;
2022/03/05 09:55:48;;;;;;;12;7.9;;;;;;;12.3;28.24707;936.72;;;;
2022/03/05 09:58:16;;;;;;;10.6;8.9;;;;;;;11.62;29.35938;936.7011;;;;
2022/03/05 10:00:41;;;;;;;11.8;8.7;;;;;;;11.53;29.3877;936.6981;;;;
2022/03/05 10:03:06;;;;;;;11.6;8.6;;;;;;;10.84;31.16895;936.7173;;;;
2022/03/05 10:05:32;;;;;;;12.3;9.1;;;;;;;11.37;30.58984;936.6287;;;;
2022/03/05 10:07:57;;;;;;;12.8;9.5;;;;;;;11.59;30.31836;936.5549;;;;
2022/03/05 10:10:22;;;;;;;14.3;11.1;;;;;;;10.95;32.23926;936.62;;;;
2022/03/05 10:12:47;;;;;;;16.1;11.3;;;;;;;10.54;33.17871;936.6082;;;;
2022/03/05 10:15:12;;;;;;;13.2;10.1;;;;;;;10.93;32.28418;936.6589;;;;
2022/03/05 10:17:38;;;;;;;13.6;9.8;;;;;;;11.18;31.42188;936.5807;;;;
2022/03/05 10:20:05;;;;;;;13.8;9.8;;;;;;;11.14;31.92285;936.6292;;;;
2022/03/05 10:22:31;;;;;;;16.9;9.6;;;;;;;10.49;33.55273;936.588;;;;
2022/03/05 10:24:56;;;;;;;12.9;9.6;;;;;;;8.82;36.15234;936.5775;;;;
2022/03/05 10:27:21;;;;;;;13.7;9.6;;;;;;;9;36.26953;936.6696;;;;
2022/03/05 10:29:47;;;;;;;11.6;8.9;;;;;;;8.86;36.37207;936.6408;;;;
2022/03/05 10:32:16;;;;;;;13;8.9;;;;;;;9.27;35.05273;936.5955;;;;
2022/03/05 10:34:40;;;;;;;13.5;9.5;;;;;;;10;33.95898;936.5822;;;;
2022/03/05 10:37:06;;;;;;;12.2;9.3;;;;;;;10.53;34.22949;936.5723;;;;
2022/03/05 10:39:33;;;;;;;11.8;9.3;;;;;;;10.97;32.40137;936.5421;;;;
2022/03/05 10:41:58;;;;;;;12.7;8.6;;;;;;;10.82;32.74316;936.5261;;;;
2022/03/05 10:44:23;;;;;;;12.3;9.5;;;;;;;11.16;31.93457;936.4977;;;;
2022/03/05 10:46:48;;;;;;;12.3;8.9;;;;;;;10.71;32.93066;936.4606;;;;
2022/03/05 10:49:13;;;;;;;11.3;8.8;;;;;;;10.3;33.45801;936.5386;;;;
2022/03/05 10:51:39;;;;;;;12.3;8.9;;;;;;;10.64;32.92383;936.6124;;;;
2022/03/05 10:54:04;;;;;;;14;10.4;;;;;;;9.76;35.75293;936.4327;;;;
2022/03/05 10:56:32;;;;;;;12.9;9.2;;;;;;;9.76;35.19336;936.4406;;;;
2022/03/05 10:58:56;;;;;;;11.8;8.8;;;;;;;10.46;33.91602;936.5265;;;;
2022/03/05 11:01:22;;;;;;;13.1;9.5;;;;;;;11.09;32.86816;936.456;;;;
2022/03/05 11:03:51;;;;;;;13.4;9.6;;;;;;;10.92;32.93457;936.4669;;;;
2022/03/05 11:06:15;;;;;;;12.2;9.5;;;;;;;11.75;32.89453;936.5355;;;;
2022/03/05 11:08:41;;;;;;;13.1;9.1;;;;;;;11.68;32.19141;936.4221;;;;
2022/03/05 11:11:06;;;;;;;12.7;9.7;;;;;;;10.49;34.25977;936.4224;;;;
2022/03/05 11:13:31;;;;;;;13.8;9.4;;;;;;;10.71;34.27832;936.4423;;;;
2022/03/05 11:15:59;;;;;;;14.3;9.5;;;;;;;9.44;36.85352;936.4745;;;;
2022/03/05 11:18:25;;;;;;;12.8;9.8;;;;;;;9.55;37.5459;936.4883;;;;
2022/03/05 11:20:50;;;;;;;12.4;9.6;;;;;;;9.51;36.64355;936.4379;;;;
2022/03/05 11:23:20;;;;;;;14.3;10.2;;;;;;;9.61;36.24121;936.4217;;;;
2022/03/05 11:25:42;;;;;;;14.4;9.1;;;;;;;11.11;33.55469;936.1844;;;;
2022/03/05 11:28:12;;;;;;;12.4;9.3;;;;;;;11.72;32.30859;936.269;;;;
2022/03/05 11:30:35;;;;;;;13.5;9.7;;;;;;;12.09;32.41602;936.1697;;;;
2022/03/05 11:33:02;;;;;;;13.4;9.5;;;;;;;10.77;34.08789;936.2428;;;;
2022/03/05 11:35:28;;;;;;;13.6;9.1;;;;;;;12.7;31.44043;936.2251;;;;
2022/03/05 11:37:53;;;;;;;12.2;9.3;;;;;;;12.79;31.64258;936.2145;;;;
2022/03/05 11:40:21;;;;;;;12.3;9.1;;;;;;;13.11;30.84961;936.0806;;;;
2022/03/05 11:42:47;;;;;;;13;9.8;;;;;;;11.78;33;936.0697;;;;
2022/03/05 11:45:14;;;;;;;12.7;9.7;;;;;;;11.96;32.6123;936.0728;;;;
2022/03/05 11:47:39;;;;;;;12.9;9.7;;;;;;;12.17;32.36523;936.054;;;;
2022/03/05 11:50:06;;;;;;;14.2;10;;;;;;;11.65;33.03613;936.0385;;;;
2022/03/05 11:52:30;;;;;;;12.9;9.6;;;;;;;12.14;31.82422;936.0628;;;;
2022/03/05 11:54:55;;;;;;;13.4;9.4;;;;;;;12.35;31.56445;935.9719;;;;
2022/03/05 11:57:22;;;;;;;14.1;9.6;;;;;;;12.24;31.92285;935.921;;;;
2022/03/05 11:59:47;;;;;;;12.2;9;;;;;;;12.87;30.78711;935.9005;;;;
2022/03/05 12:02:14;;;;;;;12.4;9;;;;;;;13.19;30.47656;935.8942;;;;
2022/03/05 12:04:39;;;;;;;13.8;9.5;;;;;;;12.78;30.83789;935.9085;;;;
2022/03/05 12:07:04;;;;;;;13.5;9.1;;;;;;;13.18;30.24609;935.808;;;;
2022/03/05 12:09:30;;;;;;;19.8;13.4;;;;;;;13.59;29.65332;935.9031;;;;
2022/03/05 12:11:55;;;;;;;12.7;9.9;;;;;;;15.18;27.18848;935.824;;;;
2022/03/05 12:14:22;;;;;;;13;9.5;;;;;;;15.37;26.31152;935.7456;;;;
2022/03/05 12:16:48;;;;;;;11.9;9;;;;;;;15.86;26.25977;935.8019;;;;
2022/03/05 12:19:15;;;;;;;11.6;8.6;;;;;;;15.48;26.19043;935.6749;;;;
2022/03/05 12:21:40;;;;;;;12.7;9.6;;;;;;;15.4;26.11719;935.6153;;;;
2022/03/05 12:24:08;;;;;;;12.8;9.3;;;;;;;14.39;28.39453;935.7453;;;;
2022/03/05 12:26:31;;;;;;;13.1;9.4;;;;;;;13.51;29.18848;935.5924;;;;
2022/03/05 12:28:56;;;;;;;13;9.2;;;;;;;14.21;27.83008;935.6449;;;;
2022/03/05 12:31:22;;;;;;;13.3;9.8;;;;;;;13.87;28.17676;935.669;;;;
2022/03/05 12:33:48;;;;;;;11.8;9.1;;;;;;;13.16;29.40625;935.6287;;;;
2022/03/05 12:36:18;;;;;;;12.1;9.3;;;;;;;13.59;29.20508;935.6376;;;;
2022/03/05 12:38:43;;;;;;;15.1;10.3;;;;;;;12.84;30.13086;935.5826;;;;
2022/03/05 12:41:10;;;;;;;13.4;9.5;;;;;;;12.21;32.17285;935.6157;;;;
2022/03/05 12:43:35;;;;;;;28.1;18.7;;;;;;;14.37;28.62402;935.4948;;;;
2022/03/05 12:46:00;;;;;;;12.7;9.6;;;;;;;15.69;26.63086;935.4998;;;;
2022/03/05 12:48:25;;;;;;;13.4;10;;;;;;;15.49;26.13477;935.4651;;;;
2022/03/05 12:50:50;;;;;;;11.8;9.6;;;;;;;14.64;28.41113;935.4802;;;;
2022/03/05 12:53:16;;;;;;;15.8;11.7;;;;;;;14.73;27.51758;935.3228;;;;
2022/03/05 12:55:41;;;;;;;13.1;10.1;;;;;;;16.05;25.80859;935.5037;;;;
2022/03/05 12:58:09;;;;;;;16.9;12.1;;;;;;;14.75;27.54199;935.4725;;;;
2022/03/05 13:00:34;;;;;;;14.2;10.8;;;;;;;14.41;29.00684;935.5112;;;;
2022/03/05 13:03:00;;;;;;;15.2;11.4;;;;;;;15.09;27.29785;935.4419;;;;
2022/03/05 13:05:25;;;;;;;19.8;13.5;;;;;;;16.67;25.2666;935.4338;;;;
2022/03/05 13:07:51;;;;;;;14.3;10.8;;;;;;;16.7;24.46875;935.5283;;;;
2022/03/05 13:10:17;;;;;;;15.2;11.4;;;;;;;16.82;24.18652;935.3195;;;;
2022/03/05 13:12:42;;;;;;;13.3;10.4;;;;;;;14.36;28.39258;935.4172;;;;
2022/03/05 13:15:07;;;;;;;14.6;10.6;;;;;;;15.67;25.46289;935.4456;;;;
2022/03/05 13:17:32;;;;;;;14.9;10.1;;;;;;;16.68;24.78027;935.3533;;;;
2022/03/05 13:20:02;;;;;;;14.2;10.3;;;;;;;14.96;26.1709;935.3484;;;;
2022/03/05 13:22:27;;;;;;;13.5;10.2;;;;;;;15.49;26.07617;935.291;;;;
2022/03/05 13:24:52;;;;;;;13.6;10.1;;;;;;;16.8;24.41699;935.339;;;;
2022/03/05 13:27:17;;;;;;;16.1;10.5;;;;;;;15.04;26.00293;935.2957;;;;
2022/03/05 13:29:43;;;;;;;13.7;10.6;;;;;;;13.53;28.61523;935.2684;;;;
2022/03/05 13:32:08;;;;;;;14;10.5;;;;;;;14.06;27.13086;935.2299;;;;
2022/03/05 13:34:33;;;;;;;13.6;10.1;;;;;;;15.03;25.59863;935.2717;;;;
2022/03/05 13:36:59;;;;;;;14.1;10.4;;;;;;;14.3;26.70801;935.3031;;;;
2022/03/05 13:39:24;;;;;;;14.8;10.8;;;;;;;14.04;27.14063;935.1613;;;;
2022/03/05 13:41:49;;;;;;;13.7;10.2;;;;;;;13.35;27.82129;935.2277;;;;
2022/03/05 13:44:14;;;;;;;14.9;9.5;;;;;;;12.27;29.27734;935.1905;;;;
2022/03/05 13:46:40;;;;;;;13.6;10.3;;;;;;;11.99;30.03711;935.2054;;;;
2022/03/05 13:49:05;;;;;;;13.1;10;;;;;;;12.43;29.51758;935.3077;;;;
2022/03/05 13:51:30;;;;;;;14.4;10.7;;;;;;;12.67;28.40918;935.245;;;;
2022/03/05 13:53:55;;;;;;;14.4;10.5;;;;;;;13.65;27.47363;935.2205;;;;
2022/03/05 13:56:20;;;;;;;12.9;9.8;;;;;;;14.86;25.30078;935.1381;;;;
2022/03/05 13:58:45;;;;;;;13.9;9.7;;;;;;;14.85;25.33398;935.1879;;;;
2022/03/05 14:01:15;;;;;;;13.9;10.2;;;;;;;14.48;26.13086;935.1938;;;;
2022/03/05 14:03:42;;;;;;;13.1;9.8;;;;;;;14.9;25.6377;935.2274;;;;
2022/03/05 14:06:07;;;;;;;12.4;9.4;;;;;;;15.16;24.6377;935.1513;;;;
2022/03/05 14:08:32;;;;;;;12.5;9.8;;;;;;;15.49;24.54004;935.0759;;;;
2022/03/05 14:11:00;;;;;;;13.5;9.8;;;;;;;15.36;24.15234;935.1456;;;;
2022/03/05 14:13:26;;;;;;;12.2;9.4;;;;;;;13.56;26.06445;935.2825;;;;
2022/03/05 14:15:57;;;;;;;12.4;9.3;;;;;;;13.25;27.03418;935.0891;;;;
2022/03/05 14:18:23;;;;;;;13.1;10.1;;;;;;;14.2;26.4248;935.1838;;;;
2022/03/05 14:20:50;;;;;;;13.2;9.9;;;;;;;13.15;26.63672;935.1858;;;;
2022/03/05 14:23:15;;;;;;;12.5;9.5;;;;;;;12.38;27.65625;935.1519;;;;
2022/03/05 14:25:45;;;;;;;14.9;9.8;;;;;;;12.63;27.54688;935.1884;;;;